sensor_id;sensor_type;location;lat;lon;timestamp;P1;durP1;ratioP1;P2;durP2;ratioP2
10418;SDS011;5256;48.728;9.140;2022-07-12T00:01:07;0.40;;;0.40;;
10418;SDS011;5256;48.728;9.140;2022-07-12T00:03:33;0.30;;;0.30;;
10418;SDS011;5256;48.728;9.140;2022-07-12T00:06:00;0.30;;;0.30;;
10418;SDS011;5256;48.728;9.140;2022-07-12T00:08:27;0.50;;;0.50;;
10418;SDS011;5256;48.728;9.140;2022-07-12T00:10:52;0.40;;;0.40;;
10418;SDS011;5256;48.728;9.140;2022-07-12T00:13:19;0.30;;;0.30;;
10418;SDS011;5256;48.728;9.140;2022-07-12T00:15:45;0.30;;;0.30;;
10418;SDS011;5256;48.728;9.140;2022-07-12T00:18:10;0.20;;;0.20;;
10418;SDS011;5256;48.728;9.140;2022-07-12T00:20:37;0.40;;;0.40;;
10418;SDS011;5256;48.728;9.140;2022-07-12T00:23:03;0.30;;;0.30;;
10418;SDS011;5256;48.728;9.140;2022-07-12T00:25:29;0.27;;;0.27;;
10418;SDS011;5256;48.728;9.140;2022-07-12T00:27:54;0.40;;;0.40;;
10418;SDS011;5256;48.728;9.140;2022-07-12T00:30:21;0.30;;;0.30;;
10418;SDS011;5256;48.728;9.140;2022-07-12T00:32:47;0.30;;;0.30;;
10418;SDS011;5256;48.728;9.140;2022-07-12T00:35:13;0.30;;;0.30;;
10418;SDS011;5256;48.728;9.140;2022-07-12T00:37:39;0.30;;;0.30;;
10418;SDS011;5256;48.728;9.140;2022-07-12T00:40:08;0.30;;;0.30;;
10418;SDS011;5256;48.728;9.140;2022-07-12T00:42:36;0.30;;;0.30;;
10418;SDS011;5256;48.728;9.140;2022-07-12T00:45:05;0.23;;;0.23;;
10418;SDS011;5256;48.728;9.140;2022-07-12T00:47:35;0.30;;;0.30;;
10418;SDS011;5256;48.728;9.140;2022-07-12T00:52:43;0.30;;;0.30;;
10418;SDS011;5256;48.728;9.140;2022-07-12T00:55:10;0.30;;;0.30;;
10418;SDS011;5256;48.728;9.140;2022-07-12T00:57:37;0.30;;;0.30;;
10418;SDS011;5256;48.728;9.140;2022-07-12T01:00:04;0.30;;;0.30;;
10418;SDS011;5256;48.728;9.140;2022-07-12T01:02:32;0.30;;;0.30;;
10418;SDS011;5256;48.728;9.140;2022-07-12T01:04:59;0.40;;;0.40;;
10418;SDS011;5256;48.728;9.140;2022-07-12T01:07:25;0.33;;;0.33;;
10418;SDS011;5256;48.728;9.140;2022-07-12T01:09:51;0.33;;;0.33;;
10418;SDS011;5256;48.728;9.140;2022-07-12T01:12:19;0.20;;;0.20;;
10418;SDS011;5256;48.728;9.140;2022-07-12T01:14:46;0.30;;;0.30;;
10418;SDS011;5256;48.728;9.140;2022-07-12T01:17:14;0.30;;;0.30;;
10418;SDS011;5256;48.728;9.140;2022-07-12T01:19:40;0.20;;;0.20;;
10418;SDS011;5256;48.728;9.140;2022-07-12T01:22:09;0.30;;;0.30;;
10418;SDS011;5256;48.728;9.140;2022-07-12T01:24:35;0.30;;;0.30;;
10418;SDS011;5256;48.728;9.140;2022-07-12T01:27:02;0.30;;;0.30;;
10418;SDS011;5256;48.728;9.140;2022-07-12T01:29:29;0.30;;;0.30;;
10418;SDS011;5256;48.728;9.140;2022-07-12T01:31:55;0.30;;;0.30;;
10418;SDS011;5256;48.728;9.140;2022-07-12T01:34:41;0.30;;;0.30;;
10418;SDS011;5256;48.728;9.140;2022-07-12T01:37:07;0.37;;;0.37;;
10418;SDS011;5256;48.728;9.140;2022-07-12T01:39:34;0.30;;;0.30;;
10418;SDS011;5256;48.728;9.140;2022-07-12T01:42:00;0.40;;;0.40;;
10418;SDS011;5256;48.728;9.140;2022-07-12T01:44:26;0.40;;;0.40;;
10418;SDS011;5256;48.728;9.140;2022-07-12T01:46:51;0.30;;;0.30;;
10418;SDS011;5256;48.728;9.140;2022-07-12T01:49:17;0.40;;;0.40;;
10418;SDS011;5256;48.728;9.140;2022-07-12T01:51:42;0.30;;;0.30;;
10418;SDS011;5256;48.728;9.140;2022-07-12T01:54:08;0.40;;;0.40;;
10418;SDS011;5256;48.728;9.140;2022-07-12T01:56:33;0.30;;;0.30;;
10418;SDS011;5256;48.728;9.140;2022-07-12T01:59:00;0.30;;;0.30;;
10418;SDS011;5256;48.728;9.140;2022-07-12T02:01:26;0.30;;;0.30;;
10418;SDS011;5256;48.728;9.140;2022-07-12T02:03:53;0.40;;;0.40;;
10418;SDS011;5256;48.728;9.140;2022-07-12T02:06:19;0.30;;;0.30;;
10418;SDS011;5256;48.728;9.140;2022-07-12T02:08:45;0.30;;;0.30;;
10418;SDS011;5256;48.728;9.140;2022-07-12T02:11:10;0.30;;;0.30;;
10418;SDS011;5256;48.728;9.140;2022-07-12T02:13:36;0.27;;;0.27;;
10418;SDS011;5256;48.728;9.140;2022-07-12T02:16:03;0.30;;;0.30;;
10418;SDS011;5256;48.728;9.140;2022-07-12T02:18:32;0.30;;;0.30;;
10418;SDS011;5256;48.728;9.140;2022-07-12T02:20:58;0.30;;;0.30;;
10418;SDS011;5256;48.728;9.140;2022-07-12T02:23:23;0.30;;;0.30;;
10418;SDS011;5256;48.728;9.140;2022-07-12T02:25:49;0.30;;;0.30;;
10418;SDS011;5256;48.728;9.140;2022-07-12T02:28:14;0.30;;;0.30;;
10418;SDS011;5256;48.728;9.140;2022-07-12T02:30:40;0.30;;;0.30;;
10418;SDS011;5256;48.728;9.140;2022-07-12T02:33:06;0.33;;;0.33;;
10418;SDS011;5256;48.728;9.140;2022-07-12T02:35:31;0.27;;;0.27;;
10418;SDS011;5256;48.728;9.140;2022-07-12T02:37:57;0.30;;;0.30;;
10418;SDS011;5256;48.728;9.140;2022-07-12T02:40:22;0.30;;;0.30;;
10418;SDS011;5256;48.728;9.140;2022-07-12T02:43:06;0.40;;;0.40;;
10418;SDS011;5256;48.728;9.140;2022-07-12T02:45:32;0.40;;;0.40;;
10418;SDS011;5256;48.728;9.140;2022-07-12T02:47:57;0.30;;;0.30;;
10418;SDS011;5256;48.728;9.140;2022-07-12T02:50:23;0.30;;;0.30;;
10418;SDS011;5256;48.728;9.140;2022-07-12T02:52:49;0.30;;;0.30;;
10418;SDS011;5256;48.728;9.140;2022-07-12T02:55:14;0.20;;;0.20;;
10418;SDS011;5256;48.728;9.140;2022-07-12T02:57:40;0.20;;;0.20;;
10418;SDS011;5256;48.728;9.140;2022-07-12T03:00:06;0.30;;;0.30;;
10418;SDS011;5256;48.728;9.140;2022-07-12T03:02:32;0.20;;;0.20;;
10418;SDS011;5256;48.728;9.140;2022-07-12T03:04:58;0.30;;;0.30;;
10418;SDS011;5256;48.728;9.140;2022-07-12T03:07:23;0.30;;;0.30;;
10418;SDS011;5256;48.728;9.140;2022-07-12T03:09:49;0.20;;;0.20;;
10418;SDS011;5256;48.728;9.140;2022-07-12T03:12:15;0.40;;;0.40;;
10418;SDS011;5256;48.728;9.140;2022-07-12T03:14:40;0.40;;;0.40;;
10418;SDS011;5256;48.728;9.140;2022-07-12T03:17:06;0.30;;;0.30;;
10418;SDS011;5256;48.728;9.140;2022-07-12T03:19:32;0.30;;;0.30;;
10418;SDS011;5256;48.728;9.140;2022-07-12T03:21:58;0.30;;;0.30;;
10418;SDS011;5256;48.728;9.140;2022-07-12T03:24:23;0.30;;;0.30;;
10418;SDS011;5256;48.728;9.140;2022-07-12T03:26:49;0.30;;;0.30;;
10418;SDS011;5256;48.728;9.140;2022-07-12T03:29:16;0.40;;;0.40;;
10418;SDS011;5256;48.728;9.140;2022-07-12T03:31:41;0.30;;;0.30;;
10418;SDS011;5256;48.728;9.140;2022-07-12T03:34:07;0.50;;;0.50;;
10418;SDS011;5256;48.728;9.140;2022-07-12T03:36:32;0.30;;;0.30;;
10418;SDS011;5256;48.728;9.140;2022-07-12T03:38:58;0.30;;;0.30;;
10418;SDS011;5256;48.728;9.140;2022-07-12T03:41:24;0.30;;;0.30;;
10418;SDS011;5256;48.728;9.140;2022-07-12T03:43:49;0.30;;;0.30;;
10418;SDS011;5256;48.728;9.140;2022-07-12T03:46:15;0.20;;;0.20;;
10418;SDS011;5256;48.728;9.140;2022-07-12T03:48:40;0.30;;;0.30;;
10418;SDS011;5256;48.728;9.140;2022-07-12T03:51:06;0.37;;;0.37;;
10418;SDS011;5256;48.728;9.140;2022-07-12T03:53:31;0.37;;;0.37;;
10418;SDS011;5256;48.728;9.140;2022-07-12T03:55:57;0.40;;;0.40;;
10418;SDS011;5256;48.728;9.140;2022-07-12T03:58:22;0.30;;;0.30;;
10418;SDS011;5256;48.728;9.140;2022-07-12T04:00:48;0.33;;;0.33;;
10418;SDS011;5256;48.728;9.140;2022-07-12T04:03:13;0.20;;;0.20;;
10418;SDS011;5256;48.728;9.140;2022-07-12T04:05:39;0.30;;;0.30;;
10418;SDS011;5256;48.728;9.140;2022-07-12T04:08:05;0.40;;;0.40;;
10418;SDS011;5256;48.728;9.140;2022-07-12T04:10:31;0.30;;;0.30;;
10418;SDS011;5256;48.728;9.140;2022-07-12T04:12:57;0.30;;;0.30;;
10418;SDS011;5256;48.728;9.140;2022-07-12T04:15:22;0.30;;;0.30;;
10418;SDS011;5256;48.728;9.140;2022-07-12T04:17:48;0.30;;;0.30;;
10418;SDS011;5256;48.728;9.140;2022-07-12T04:20:14;0.30;;;0.30;;
10418;SDS011;5256;48.728;9.140;2022-07-12T04:22:39;0.20;;;0.20;;
10418;SDS011;5256;48.728;9.140;2022-07-12T04:25:06;0.40;;;0.40;;
10418;SDS011;5256;48.728;9.140;2022-07-12T04:27:32;0.30;;;0.30;;
10418;SDS011;5256;48.728;9.140;2022-07-12T04:29:58;0.30;;;0.30;;
10418;SDS011;5256;48.728;9.140;2022-07-12T04:32:23;0.40;;;0.40;;
10418;SDS011;5256;48.728;9.140;2022-07-12T04:34:49;0.20;;;0.20;;
10418;SDS011;5256;48.728;9.140;2022-07-12T04:37:14;0.30;;;0.30;;
10418;SDS011;5256;48.728;9.140;2022-07-12T04:39:40;0.30;;;0.30;;
10418;SDS011;5256;48.728;9.140;2022-07-12T04:42:06;0.40;;;0.40;;
10418;SDS011;5256;48.728;9.140;2022-07-12T04:44:31;0.40;;;0.40;;
10418;SDS011;5256;48.728;9.140;2022-07-12T04:46:57;0.20;;;0.20;;
10418;SDS011;5256;48.728;9.140;2022-07-12T04:49:23;0.40;;;0.40;;
10418;SDS011;5256;48.728;9.140;2022-07-12T04:51:48;0.30;;;0.30;;
10418;SDS011;5256;48.728;9.140;2022-07-12T04:54:14;0.30;;;0.30;;
10418;SDS011;5256;48.728;9.140;2022-07-12T04:56:39;0.20;;;0.20;;
10418;SDS011;5256;48.728;9.140;2022-07-12T04:59:05;0.20;;;0.20;;
10418;SDS011;5256;48.728;9.140;2022-07-12T05:01:31;0.20;;;0.20;;
10418;SDS011;5256;48.728;9.140;2022-07-12T05:03:57;0.20;;;0.20;;
10418;SDS011;5256;48.728;9.140;2022-07-12T05:06:23;0.30;;;0.30;;
10418;SDS011;5256;48.728;9.140;2022-07-12T05:08:49;0.20;;;0.20;;
10418;SDS011;5256;48.728;9.140;2022-07-12T05:11:15;0.20;;;0.20;;
10418;SDS011;5256;48.728;9.140;2022-07-12T05:13:41;0.20;;;0.20;;
10418;SDS011;5256;48.728;9.140;2022-07-12T05:16:07;0.20;;;0.20;;
10418;SDS011;5256;48.728;9.140;2022-07-12T05:18:33;0.20;;;0.20;;
10418;SDS011;5256;48.728;9.140;2022-07-12T05:20:59;0.20;;;0.20;;
10418;SDS011;5256;48.728;9.140;2022-07-12T05:23:24;0.30;;;0.30;;
10418;SDS011;5256;48.728;9.140;2022-07-12T05:25:50;0.20;;;0.20;;
10418;SDS011;5256;48.728;9.140;2022-07-12T05:28:16;0.30;;;0.30;;
10418;SDS011;5256;48.728;9.140;2022-07-12T05:30:42;0.20;;;0.20;;
10418;SDS011;5256;48.728;9.140;2022-07-12T05:33:08;0.10;;;0.10;;
10418;SDS011;5256;48.728;9.140;2022-07-12T05:35:34;0.17;;;0.17;;
10418;SDS011;5256;48.728;9.140;2022-07-12T05:37:59;0.10;;;0.10;;
10418;SDS011;5256;48.728;9.140;2022-07-12T05:40:26;0.17;;;0.17;;
10418;SDS011;5256;48.728;9.140;2022-07-12T05:42:51;0.20;;;0.20;;
10418;SDS011;5256;48.728;9.140;2022-07-12T05:45:17;0.10;;;0.10;;
10418;SDS011;5256;48.728;9.140;2022-07-12T05:47:43;0.20;;;0.20;;
10418;SDS011;5256;48.728;9.140;2022-07-12T05:50:08;0.20;;;0.20;;
10418;SDS011;5256;48.728;9.140;2022-07-12T05:52:34;0.10;;;0.10;;
10418;SDS011;5256;48.728;9.140;2022-07-12T05:55:18;0.10;;;0.10;;
10418;SDS011;5256;48.728;9.140;2022-07-12T05:57:44;0.20;;;0.20;;
10418;SDS011;5256;48.728;9.140;2022-07-12T06:00:10;0.20;;;0.20;;
10418;SDS011;5256;48.728;9.140;2022-07-12T06:02:36;0.10;;;0.10;;
10418;SDS011;5256;48.728;9.140;2022-07-12T06:05:02;0.20;;;0.20;;
10418;SDS011;5256;48.728;9.140;2022-07-12T06:07:27;0.10;;;0.10;;
10418;SDS011;5256;48.728;9.140;2022-07-12T06:09:53;0.10;;;0.10;;
10418;SDS011;5256;48.728;9.140;2022-07-12T06:12:18;0.10;;;0.10;;
10418;SDS011;5256;48.728;9.140;2022-07-12T06:14:44;0.10;;;0.10;;
10418;SDS011;5256;48.728;9.140;2022-07-12T06:17:09;0.20;;;0.20;;
10418;SDS011;5256;48.728;9.140;2022-07-12T06:19:35;0.10;;;0.10;;
10418;SDS011;5256;48.728;9.140;2022-07-12T06:22:01;0.10;;;0.10;;
10418;SDS011;5256;48.728;9.140;2022-07-12T06:24:26;0.20;;;0.20;;
10418;SDS011;5256;48.728;9.140;2022-07-12T06:26:52;0.10;;;0.10;;
10418;SDS011;5256;48.728;9.140;2022-07-12T06:29:17;0.10;;;0.10;;
10418;SDS011;5256;48.728;9.140;2022-07-12T06:31:43;0.10;;;0.10;;
10418;SDS011;5256;48.728;9.140;2022-07-12T06:34:08;0.10;;;0.10;;
10418;SDS011;5256;48.728;9.140;2022-07-12T06:36:34;0.10;;;0.10;;
10418;SDS011;5256;48.728;9.140;2022-07-12T06:38:59;0.10;;;0.10;;
10418;SDS011;5256;48.728;9.140;2022-07-12T06:41:25;0.17;;;0.17;;
10418;SDS011;5256;48.728;9.140;2022-07-12T06:43:54;0.20;;;0.20;;
10418;SDS011;5256;48.728;9.140;2022-07-12T06:46:19;0.10;;;0.10;;
10418;SDS011;5256;48.728;9.140;2022-07-12T06:48:45;0.20;;;0.20;;
10418;SDS011;5256;48.728;9.140;2022-07-12T06:51:11;0.10;;;0.10;;
10418;SDS011;5256;48.728;9.140;2022-07-12T06:53:36;0.10;;;0.10;;
10418;SDS011;5256;48.728;9.140;2022-07-12T06:56:02;0.10;;;0.10;;
10418;SDS011;5256;48.728;9.140;2022-07-12T06:58:28;0.17;;;0.17;;
10418;SDS011;5256;48.728;9.140;2022-07-12T07:00:53;0.10;;;0.10;;
10418;SDS011;5256;48.728;9.140;2022-07-12T07:03:19;0.10;;;0.10;;
10418;SDS011;5256;48.728;9.140;2022-07-12T07:05:44;0.10;;;0.10;;
10418;SDS011;5256;48.728;9.140;2022-07-12T07:08:10;0.10;;;0.10;;
10418;SDS011;5256;48.728;9.140;2022-07-12T07:10:35;0.10;;;0.10;;
10418;SDS011;5256;48.728;9.140;2022-07-12T07:13:01;0.10;;;0.10;;
10418;SDS011;5256;48.728;9.140;2022-07-12T07:15:27;0.10;;;0.10;;
10418;SDS011;5256;48.728;9.140;2022-07-12T07:17:52;0.10;;;0.10;;
10418;SDS011;5256;48.728;9.140;2022-07-12T07:20:18;0.10;;;0.10;;
10418;SDS011;5256;48.728;9.140;2022-07-12T07:22:44;0.10;;;0.10;;
10418;SDS011;5256;48.728;9.140;2022-07-12T07:25:09;0.10;;;0.10;;
10418;SDS011;5256;48.728;9.140;2022-07-12T07:27:35;0.10;;;0.10;;
10418;SDS011;5256;48.728;9.140;2022-07-12T07:30:00;0.10;;;0.10;;
10418;SDS011;5256;48.728;9.140;2022-07-12T07:32:44;0.10;;;0.10;;
10418;SDS011;5256;48.728;9.140;2022-07-12T07:35:10;0.10;;;0.10;;
10418;SDS011;5256;48.728;9.140;2022-07-12T07:37:36;0.10;;;0.10;;
10418;SDS011;5256;48.728;9.140;2022-07-12T07:40:02;0.10;;;0.10;;
10418;SDS011;5256;48.728;9.140;2022-07-12T07:42:28;0.10;;;0.10;;
10418;SDS011;5256;48.728;9.140;2022-07-12T07:44:53;0.10;;;0.10;;
10418;SDS011;5256;48.728;9.140;2022-07-12T07:47:19;0.10;;;0.10;;
10418;SDS011;5256;48.728;9.140;2022-07-12T07:49:45;0.10;;;0.10;;
10418;SDS011;5256;48.728;9.140;2022-07-12T07:52:10;0.10;;;0.10;;
10418;SDS011;5256;48.728;9.140;2022-07-12T07:54:36;0.10;;;0.10;;
10418;SDS011;5256;48.728;9.140;2022-07-12T07:57:02;0.10;;;0.10;;
10418;SDS011;5256;48.728;9.140;2022-07-12T07:59:28;0.10;;;0.10;;
10418;SDS011;5256;48.728;9.140;2022-07-12T08:01:54;0.10;;;0.10;;
10418;SDS011;5256;48.728;9.140;2022-07-12T08:04:20;0.10;;;0.10;;
10418;SDS011;5256;48.728;9.140;2022-07-12T08:06:48;0.10;;;0.10;;
10418;SDS011;5256;48.728;9.140;2022-07-12T08:09:14;0.10;;;0.10;;
10418;SDS011;5256;48.728;9.140;2022-07-12T08:11:40;0.13;;;0.13;;
10418;SDS011;5256;48.728;9.140;2022-07-12T08:14:07;0.10;;;0.10;;
10418;SDS011;5256;48.728;9.140;2022-07-12T08:16:33;0.20;;;0.20;;
10418;SDS011;5256;48.728;9.140;2022-07-12T08:18:59;0.20;;;0.20;;
10418;SDS011;5256;48.728;9.140;2022-07-12T08:21:26;0.10;;;0.10;;
10418;SDS011;5256;48.728;9.140;2022-07-12T08:23:52;0.10;;;0.10;;
10418;SDS011;5256;48.728;9.140;2022-07-12T08:26:18;0.10;;;0.10;;
10418;SDS011;5256;48.728;9.140;2022-07-12T08:28:44;0.10;;;0.10;;
10418;SDS011;5256;48.728;9.140;2022-07-12T08:31:09;0.10;;;0.10;;
10418;SDS011;5256;48.728;9.140;2022-07-12T08:33:38;0.20;;;0.20;;
10418;SDS011;5256;48.728;9.140;2022-07-12T08:36:04;0.10;;;0.10;;
10418;SDS011;5256;48.728;9.140;2022-07-12T08:38:29;0.10;;;0.10;;
10418;SDS011;5256;48.728;9.140;2022-07-12T08:40:57;0.17;;;0.17;;
10418;SDS011;5256;48.728;9.140;2022-07-12T08:43:22;0.10;;;0.10;;
10418;SDS011;5256;48.728;9.140;2022-07-12T08:45:48;0.20;;;0.20;;
10418;SDS011;5256;48.728;9.140;2022-07-12T08:48:14;0.20;;;0.20;;
10418;SDS011;5256;48.728;9.140;2022-07-12T08:50:40;0.20;;;0.20;;
10418;SDS011;5256;48.728;9.140;2022-07-12T08:53:09;0.10;;;0.10;;
10418;SDS011;5256;48.728;9.140;2022-07-12T08:55:35;0.10;;;0.10;;
10418;SDS011;5256;48.728;9.140;2022-07-12T08:58:04;0.10;;;0.10;;
10418;SDS011;5256;48.728;9.140;2022-07-12T09:00:39;0.10;;;0.10;;
10418;SDS011;5256;48.728;9.140;2022-07-12T09:03:05;0.10;;;0.10;;
10418;SDS011;5256;48.728;9.140;2022-07-12T09:05:32;0.20;;;0.20;;
10418;SDS011;5256;48.728;9.140;2022-07-12T09:08:09;0.10;;;0.10;;
10418;SDS011;5256;48.728;9.140;2022-07-12T09:10:36;0.10;;;0.10;;
10418;SDS011;5256;48.728;9.140;2022-07-12T09:16:22;0.10;;;0.10;;
10418;SDS011;5256;48.728;9.140;2022-07-12T09:18:52;0.10;;;0.10;;
10418;SDS011;5256;48.728;9.140;2022-07-12T09:21:45;0.10;;;0.10;;
10418;SDS011;5256;48.728;9.140;2022-07-12T09:24:13;0.10;;;0.10;;
10418;SDS011;5256;48.728;9.140;2022-07-12T09:26:38;0.10;;;0.10;;
10418;SDS011;5256;48.728;9.140;2022-07-12T09:29:07;0.10;;;0.10;;
10418;SDS011;5256;48.728;9.140;2022-07-12T09:31:50;0.17;;;0.17;;
10418;SDS011;5256;48.728;9.140;2022-07-12T09:34:35;0.13;;;0.13;;
10418;SDS011;5256;48.728;9.140;2022-07-12T09:37:19;0.10;;;0.10;;
10418;SDS011;5256;48.728;9.140;2022-07-12T09:39:46;0.10;;;0.10;;
10418;SDS011;5256;48.728;9.140;2022-07-12T09:42:17;0.10;;;0.10;;
10418;SDS011;5256;48.728;9.140;2022-07-12T09:44:43;0.10;;;0.10;;
10418;SDS011;5256;48.728;9.140;2022-07-12T09:47:11;0.10;;;0.10;;
10418;SDS011;5256;48.728;9.140;2022-07-12T09:49:41;0.20;;;0.20;;
10418;SDS011;5256;48.728;9.140;2022-07-12T09:52:12;0.10;;;0.10;;
10418;SDS011;5256;48.728;9.140;2022-07-12T09:54:42;0.10;;;0.10;;
10418;SDS011;5256;48.728;9.140;2022-07-12T09:57:16;0.10;;;0.10;;
10418;SDS011;5256;48.728;9.140;2022-07-12T09:59:46;0.20;;;0.20;;
10418;SDS011;5256;48.728;9.140;2022-07-12T10:02:14;0.10;;;0.10;;
10418;SDS011;5256;48.728;9.140;2022-07-12T10:04:41;0.10;;;0.10;;
10418;SDS011;5256;48.728;9.140;2022-07-12T10:07:10;0.10;;;0.10;;
10418;SDS011;5256;48.728;9.140;2022-07-12T10:09:40;0.10;;;0.10;;
10418;SDS011;5256;48.728;9.140;2022-07-12T10:12:08;0.10;;;0.10;;
10418;SDS011;5256;48.728;9.140;2022-07-12T10:14:35;0.20;;;0.20;;
10418;SDS011;5256;48.728;9.140;2022-07-12T10:17:05;0.10;;;0.10;;
10418;SDS011;5256;48.728;9.140;2022-07-12T10:19:34;0.10;;;0.10;;
10418;SDS011;5256;48.728;9.140;2022-07-12T10:22:02;0.10;;;0.10;;
10418;SDS011;5256;48.728;9.140;2022-07-12T10:26:57;0.10;;;0.10;;
10418;SDS011;5256;48.728;9.140;2022-07-12T10:29:23;0.10;;;0.10;;
10418;SDS011;5256;48.728;9.140;2022-07-12T10:31:50;0.10;;;0.10;;
10418;SDS011;5256;48.728;9.140;2022-07-12T10:34:21;0.10;;;0.10;;
10418;SDS011;5256;48.728;9.140;2022-07-12T10:37:06;0.10;;;0.10;;
10418;SDS011;5256;48.728;9.140;2022-07-12T10:39:33;0.10;;;0.10;;
10418;SDS011;5256;48.728;9.140;2022-07-12T10:44:34;0.10;;;0.10;;
10418;SDS011;5256;48.728;9.140;2022-07-12T10:47:04;0.20;;;0.20;;
10418;SDS011;5256;48.728;9.140;2022-07-12T10:49:31;0.10;;;0.10;;
10418;SDS011;5256;48.728;9.140;2022-07-12T10:55:20;0.07;;;0.07;;
10418;SDS011;5256;48.728;9.140;2022-07-12T11:00:10;0.10;;;0.10;;
10418;SDS011;5256;48.728;9.140;2022-07-12T11:02:36;0.10;;;0.10;;
10418;SDS011;5256;48.728;9.140;2022-07-12T11:05:02;0.00;;;0.00;;
10418;SDS011;5256;48.728;9.140;2022-07-12T11:07:28;0.10;;;0.10;;
10418;SDS011;5256;48.728;9.140;2022-07-12T11:09:55;0.10;;;0.10;;
10418;SDS011;5256;48.728;9.140;2022-07-12T11:12:27;0.10;;;0.10;;
10418;SDS011;5256;48.728;9.140;2022-07-12T11:14:54;0.10;;;0.10;;
10418;SDS011;5256;48.728;9.140;2022-07-12T11:17:20;0.10;;;0.10;;
10418;SDS011;5256;48.728;9.140;2022-07-12T11:19:50;0.10;;;0.10;;
10418;SDS011;5256;48.728;9.140;2022-07-12T11:22:33;0.10;;;0.10;;
10418;SDS011;5256;48.728;9.140;2022-07-12T11:24:58;0.10;;;0.10;;
10418;SDS011;5256;48.728;9.140;2022-07-12T11:27:25;0.20;;;0.20;;
10418;SDS011;5256;48.728;9.140;2022-07-12T11:29:57;0.10;;;0.10;;
10418;SDS011;5256;48.728;9.140;2022-07-12T11:32:45;0.10;;;0.10;;
10418;SDS011;5256;48.728;9.140;2022-07-12T11:35:19;0.10;;;0.10;;
10418;SDS011;5256;48.728;9.140;2022-07-12T11:37:52;0.10;;;0.10;;
10418;SDS011;5256;48.728;9.140;2022-07-12T11:40:24;0.10;;;0.10;;
10418;SDS011;5256;48.728;9.140;2022-07-12T11:42:57;0.10;;;0.10;;
10418;SDS011;5256;48.728;9.140;2022-07-12T11:45:25;0.10;;;0.10;;
10418;SDS011;5256;48.728;9.140;2022-07-12T11:47:51;0.10;;;0.10;;
10418;SDS011;5256;48.728;9.140;2022-07-12T11:50:17;0.13;;;0.13;;
10418;SDS011;5256;48.728;9.140;2022-07-12T11:52:44;0.10;;;0.10;;
10418;SDS011;5256;48.728;9.140;2022-07-12T11:55:09;0.17;;;0.17;;
10418;SDS011;5256;48.728;9.140;2022-07-12T11:57:35;0.10;;;0.10;;
10418;SDS011;5256;48.728;9.140;2022-07-12T12:00:20;0.10;;;0.10;;
10418;SDS011;5256;48.728;9.140;2022-07-12T12:02:54;0.10;;;0.10;;
10418;SDS011;5256;48.728;9.140;2022-07-12T12:05:20;0.10;;;0.10;;
10418;SDS011;5256;48.728;9.140;2022-07-12T12:07:46;0.10;;;0.10;;
10418;SDS011;5256;48.728;9.140;2022-07-12T12:10:12;0.10;;;0.10;;
10418;SDS011;5256;48.728;9.140;2022-07-12T12:12:46;0.20;;;0.20;;
10418;SDS011;5256;48.728;9.140;2022-07-12T12:15:21;0.10;;;0.10;;
10418;SDS011;5256;48.728;9.140;2022-07-12T12:17:54;0.10;;;0.10;;
10418;SDS011;5256;48.728;9.140;2022-07-12T12:20:29;0.10;;;0.10;;
10418;SDS011;5256;48.728;9.140;2022-07-12T12:22:57;0.10;;;0.10;;
10418;SDS011;5256;48.728;9.140;2022-07-12T12:25:24;0.20;;;0.20;;
10418;SDS011;5256;48.728;9.140;2022-07-12T12:27:58;0.10;;;0.10;;
10418;SDS011;5256;48.728;9.140;2022-07-12T12:30:27;0.10;;;0.10;;
10418;SDS011;5256;48.728;9.140;2022-07-12T12:32:55;0.10;;;0.10;;
10418;SDS011;5256;48.728;9.140;2022-07-12T12:35:25;0.13;;;0.13;;
10418;SDS011;5256;48.728;9.140;2022-07-12T12:37:57;0.10;;;0.10;;
10418;SDS011;5256;48.728;9.140;2022-07-12T12:40:39;0.20;;;0.20;;
10418;SDS011;5256;48.728;9.140;2022-07-12T12:45:32;0.30;;;0.30;;
10418;SDS011;5256;48.728;9.140;2022-07-12T12:47:59;0.10;;;0.10;;
10418;SDS011;5256;48.728;9.140;2022-07-12T12:50:43;0.10;;;0.10;;
10418;SDS011;5256;48.728;9.140;2022-07-12T12:53:14;0.10;;;0.10;;
10418;SDS011;5256;48.728;9.140;2022-07-12T12:55:48;0.10;;;0.10;;
10418;SDS011;5256;48.728;9.140;2022-07-12T12:58:19;0.20;;;0.20;;
10418;SDS011;5256;48.728;9.140;2022-07-12T13:00:47;0.20;;;0.20;;
10418;SDS011;5256;48.728;9.140;2022-07-12T13:03:15;0.20;;;0.20;;
10418;SDS011;5256;48.728;9.140;2022-07-12T13:05:43;0.10;;;0.10;;
10418;SDS011;5256;48.728;9.140;2022-07-12T13:08:10;0.13;;;0.13;;
10418;SDS011;5256;48.728;9.140;2022-07-12T13:10:37;0.17;;;0.17;;
10418;SDS011;5256;48.728;9.140;2022-07-12T13:13:04;0.10;;;0.10;;
10418;SDS011;5256;48.728;9.140;2022-07-12T13:15:30;0.10;;;0.10;;
10418;SDS011;5256;48.728;9.140;2022-07-12T13:17:56;0.20;;;0.20;;
10418;SDS011;5256;48.728;9.140;2022-07-12T13:20:22;0.10;;;0.10;;
10418;SDS011;5256;48.728;9.140;2022-07-12T13:22:48;0.10;;;0.10;;
10418;SDS011;5256;48.728;9.140;2022-07-12T13:25:14;0.10;;;0.10;;
10418;SDS011;5256;48.728;9.140;2022-07-12T13:27:40;0.20;;;0.20;;
10418;SDS011;5256;48.728;9.140;2022-07-12T13:30:08;0.10;;;0.10;;
10418;SDS011;5256;48.728;9.140;2022-07-12T13:32:35;0.10;;;0.10;;
10418;SDS011;5256;48.728;9.140;2022-07-12T13:35:01;0.17;;;0.17;;
10418;SDS011;5256;48.728;9.140;2022-07-12T13:37:29;0.20;;;0.20;;
10418;SDS011;5256;48.728;9.140;2022-07-12T13:39:54;0.20;;;0.20;;
10418;SDS011;5256;48.728;9.140;2022-07-12T13:42:35;0.10;;;0.10;;
10418;SDS011;5256;48.728;9.140;2022-07-12T13:45:12;0.10;;;0.10;;
10418;SDS011;5256;48.728;9.140;2022-07-12T13:47:43;0.10;;;0.10;;
10418;SDS011;5256;48.728;9.140;2022-07-12T13:50:10;0.10;;;0.10;;
10418;SDS011;5256;48.728;9.140;2022-07-12T13:52:37;0.10;;;0.10;;
10418;SDS011;5256;48.728;9.140;2022-07-12T13:55:04;0.10;;;0.10;;
10418;SDS011;5256;48.728;9.140;2022-07-12T13:57:32;0.10;;;0.10;;
10418;SDS011;5256;48.728;9.140;2022-07-12T13:59:59;0.00;;;0.00;;
10418;SDS011;5256;48.728;9.140;2022-07-12T14:02:26;0.10;;;0.10;;
10418;SDS011;5256;48.728;9.140;2022-07-12T14:04:52;0.10;;;0.10;;
10418;SDS011;5256;48.728;9.140;2022-07-12T14:07:18;0.10;;;0.10;;
10418;SDS011;5256;48.728;9.140;2022-07-12T14:09:44;0.00;;;0.00;;
10418;SDS011;5256;48.728;9.140;2022-07-12T14:12:10;0.00;;;0.00;;
10418;SDS011;5256;48.728;9.140;2022-07-12T14:14:36;0.10;;;0.10;;
10418;SDS011;5256;48.728;9.140;2022-07-12T14:17:20;0.10;;;0.10;;
10418;SDS011;5256;48.728;9.140;2022-07-12T14:19:46;0.10;;;0.10;;
10418;SDS011;5256;48.728;9.140;2022-07-12T14:22:12;0.10;;;0.10;;
10418;SDS011;5256;48.728;9.140;2022-07-12T14:24:38;0.10;;;0.10;;
10418;SDS011;5256;48.728;9.140;2022-07-12T14:27:03;0.00;;;0.00;;
10418;SDS011;5256;48.728;9.140;2022-07-12T14:29:30;0.10;;;0.10;;
10418;SDS011;5256;48.728;9.140;2022-07-12T14:31:56;0.00;;;0.00;;
10418;SDS011;5256;48.728;9.140;2022-07-12T14:34:22;0.00;;;0.00;;
10418;SDS011;5256;48.728;9.140;2022-07-12T14:36:48;0.10;;;0.10;;
10418;SDS011;5256;48.728;9.140;2022-07-12T14:39:14;0.00;;;0.00;;
10418;SDS011;5256;48.728;9.140;2022-07-12T14:41:39;0.10;;;0.10;;
10418;SDS011;5256;48.728;9.140;2022-07-12T14:44:05;0.00;;;0.00;;
10418;SDS011;5256;48.728;9.140;2022-07-12T14:46:32;0.00;;;0.00;;
10418;SDS011;5256;48.728;9.140;2022-07-12T14:48:58;0.10;;;0.10;;
10418;SDS011;5256;48.728;9.140;2022-07-12T14:51:24;0.00;;;0.00;;
10418;SDS011;5256;48.728;9.140;2022-07-12T14:53:50;0.10;;;0.10;;
10418;SDS011;5256;48.728;9.140;2022-07-12T14:56:17;0.10;;;0.10;;
10418;SDS011;5256;48.728;9.140;2022-07-12T14:58:43;0.00;;;0.00;;
10418;SDS011;5256;48.728;9.140;2022-07-12T15:01:09;0.00;;;0.00;;
10418;SDS011;5256;48.728;9.140;2022-07-12T15:03:35;0.10;;;0.10;;
10418;SDS011;5256;48.728;9.140;2022-07-12T15:06:00;0.10;;;0.10;;
10418;SDS011;5256;48.728;9.140;2022-07-12T15:08:26;0.10;;;0.10;;
10418;SDS011;5256;48.728;9.140;2022-07-12T15:10:51;0.10;;;0.10;;
10418;SDS011;5256;48.728;9.140;2022-07-12T15:13:17;0.00;;;0.00;;
10418;SDS011;5256;48.728;9.140;2022-07-12T15:15:43;0.00;;;0.00;;
10418;SDS011;5256;48.728;9.140;2022-07-12T15:18:09;0.10;;;0.10;;
10418;SDS011;5256;48.728;9.140;2022-07-12T15:20:35;0.00;;;0.00;;